Lone Wolf, Oklahoma
Current Conditions -  °F | °C
As of 2:53 AM on Thursday 27 Nov 2014 (Local Time) from KHBR Reporting Station
Clear Clear  
Wind Chill: 22°   Ceiling: Unl
Heat Index: 31°   Visibility: 10mi
Dew Point: 25°   Wind: 10mph
Humidity: 79%   Direction: 80°E
Pressure: 30.47"   Gusts: NA
Location:  34.99°N, 99.25°W
Report Text: KHBR 270853Z AUTO 08009KT 10SM CLR M01/M04 A3047 RMK AO2 SLP322 T10061039 50004
Loading
Personal Weather Stations






























Interactive Weather Map New forecast layout! Learn more

10-Day Weather Forecast

Advertisements
Track Severe Weather on mobile